Clipper Tradition — C6V2067 — position and weather

sailwx.info

Track history (hours):
 
Tides and Currents Weather Stations Pressure Air Temp Water Temp Dewpoint Dewpoint Depression Visibility Wind Speed Wind Dir Waves Ship Positions

Clipper Tradition

Last reported at 2017-Nov-18 09:09 UTC. Time now 2017-Dec-11 04:18 UTC.
Position N 36°25' E 014°45'.
Warning: this ship's position is 22 days out of date.

Length 179 m; draft 8.9 m.

Type: Cargo ship. MMSI: 311016100.

Date/timePositionNaut miles runAvg speedWind from/ knotsBaromVisibWave heightAir tempDewpointWater temp
2017-Nov-18 09:09N 36°25' E 014°45'311.8
2017-Nov-18 08:55N 36°25' E 014°41'512.0
2017-Nov-18 08:30N 36°26' E 014°35'611.8
2017-Nov-18 08:00N 36°27' E 014°28'611.8
2017-Nov-18 07:30N 36°28' E 014°21'611.6
2017-Nov-18 07:00N 36°30' E 014°14'611.6
2017-Nov-18 06:30N 36°31' E 014°07'  
2017-Nov-14 20:28N 35°60' W 005°10'613.5
2017-Nov-14 20:01N 35°59' W 005°17'713.2
2017-Nov-14 19:31N 35°58' W 005°25'17311.0
2017-Nov-14 03:44N 36°29' W 008°56'411.0
2017-Nov-14 03:21N 36°30' W 009°01'510.9
2017-Nov-14 02:52N 36°32' W 009°08'  
2017-Nov-11 10:44N 47°25' W 008°02'210.7
2017-Nov-11 10:30N 47°27' W 008°03'9010.0
2017-Nov-11 01:29N 48°53' W 007°21'810.5
2017-Nov-11 00:42N 49°00' W 007°17'910.2
2017-Nov-10 23:50N 49°09' W 007°13'105 9.5
2017-Nov-10 12:43N 50°39' W 005°48'2 7.7
2017-Nov-10 12:27N 50°40' W 005°46'5 9.6
2017-Nov-10 11:58N 50°43' W 005°40'5 9.9
2017-Nov-10 11:27N 50°47' W 005°35'5 9.6
2017-Nov-10 10:57N 50°50' W 005°29'5 9.5
2017-Nov-10 10:28N 50°53' W 005°24'5 9.2
2017-Nov-10 09:57N 50°56' W 005°18'5 9.0
2017-Nov-10 09:26N 50°60' W 005°13'4 9.2
2017-Nov-10 09:00N 51°03' W 005°09'510.2
2017-Nov-10 08:29N 51°07' W 005°04'4 7.5
2017-Nov-10 07:58N 51°08' W 004°59'4 8.5
2017-Nov-10 07:27N 51°11' W 004°53'4 8.3
2017-Nov-10 07:00N 51°14' W 004°49'4 7.8
2017-Nov-10 06:30N 51°16' W 004°44'4 7.3
2017-Nov-10 06:00N 51°16' W 004°38'4 7.5
2017-Nov-10 05:30N 51°17' W 004°32'4 8.0
2017-Nov-10 05:01N 51°17' W 004°26'4 8.4
2017-Nov-10 04:30N 51°17' W 004°19'4 8.8
2017-Nov-10 04:00N 51°18' W 004°12'5 9.4
2017-Nov-10 03:31N 51°18' W 004°05'510.4
2017-Nov-10 03:01N 51°19' W 003°57'1311.7
2017-Nov-10 01:56N 51°21' W 003°37'1013.0
2017-Nov-10 01:12N 51°21' W 003°21'412.8
2017-Nov-10 00:54N 51°21' W 003°15'4 9.4
2017-Nov-10 00:29N 51°22' W 003°09'613.1
2017-Nov-10 00:00N 51°26' W 003°01'612.2
2017-Nov-09 23:30N 51°28' W 002°52'611.0
2017-Nov-09 23:00N 51°30' W 002°44'1 2.1
2017-Nov-09 22:30N 51°30' W 002°43'0 0.4
2017-Nov-09 22:00N 51°30' W 002°42'0 0.1
2017-Nov-09 21:28N 51°30' W 002°42'0 0.0
2017-Nov-09 20:58N 51°30' W 002°42'0 0.0
2017-Nov-09 20:28N 51°30' W 002°42'0 0.0
2017-Nov-09 19:58N 51°30' W 002°42'0 0.0
2017-Nov-09 19:28N 51°30' W 002°42'0 0.0
2017-Nov-09 18:58N 51°30' W 002°42'0 0.0
2017-Nov-09 18:28N 51°30' W 002°42'0 0.0
2017-Nov-09 17:58N 51°30' W 002°42'0 0.0
2017-Nov-09 17:28N 51°30' W 002°42'0 0.0
2017-Nov-09 16:58N 51°30' W 002°42'0 0.0
2017-Nov-09 16:28N 51°30' W 002°42'0 0.0
2017-Nov-09 15:58N 51°30' W 002°42'0 0.0
2017-Nov-09 15:28N 51°30' W 002°42'0 0.0
2017-Nov-09 14:58N 51°30' W 002°42'0 0.0
2017-Nov-09 14:28N 51°30' W 002°42'0 0.0
2017-Nov-09 13:58N 51°30' W 002°42'0 0.0
2017-Nov-09 13:28N 51°30' W 002°42'0 0.1
2017-Nov-09 12:58N 51°30' W 002°42'0 0.1
2017-Nov-09 12:28N 51°30' W 002°42'0 0.0
2017-Nov-09 11:58N 51°30' W 002°42'0 0.0
2017-Nov-09 11:28N 51°30' W 002°42'0 0.0
2017-Nov-09 10:58N 51°30' W 002°42'0 0.0
2017-Nov-09 10:28N 51°30' W 002°42'0 0.0
2017-Nov-09 09:58N 51°30' W 002°42'0 0.0
2017-Nov-09 09:28N 51°30' W 002°42'0 0.0
2017-Nov-09 08:58N 51°30' W 002°42'0 0.0
2017-Nov-09 08:28N 51°30' W 002°42'0 0.0
2017-Nov-09 07:58N 51°30' W 002°42'0 0.0
2017-Nov-09 07:28N 51°30' W 002°42'0 0.0
2017-Nov-09 06:58N 51°30' W 002°42'0 0.0
2017-Nov-09 06:28N 51°30' W 002°42'0 0.0
2017-Nov-09 05:58N 51°30' W 002°42'0 0.0
2017-Nov-09 05:28N 51°30' W 002°42'0 0.0
2017-Nov-09 04:58N 51°30' W 002°42'0 0.0
2017-Nov-09 04:28N 51°30' W 002°42'0 0.0
2017-Nov-09 03:58N 51°30' W 002°42'0 0.0
2017-Nov-09 03:28N 51°30' W 002°42'0 0.0
2017-Nov-09 02:58N 51°30' W 002°42'0 0.0
2017-Nov-09 02:28N 51°30' W 002°42'0 0.0
2017-Nov-09 01:58N 51°30' W 002°42'0 0.0
2017-Nov-09 01:28N 51°30' W 002°42'0 0.0
2017-Nov-09 00:58N 51°30' W 002°42'0 0.0
2017-Nov-09 00:28N 51°30' W 002°42'0 0.0
2017-Nov-08 23:58N 51°30' W 002°42'0 0.0
2017-Nov-08 23:28N 51°30' W 002°42'0 0.0
2017-Nov-08 22:58N 51°30' W 002°42'0 0.0
2017-Nov-08 22:28N 51°30' W 002°42'0 0.0
2017-Nov-08 21:58N 51°30' W 002°42'0 0.0
2017-Nov-08 21:28N 51°30' W 002°42'0 0.0
2017-Nov-08 20:58N 51°30' W 002°42'0 0.0
2017-Nov-08 20:28N 51°30' W 002°42'0 0.0
2017-Nov-08 19:58N 51°30' W 002°42'0 0.0
2017-Nov-08 19:28N 51°30' W 002°42'0 0.0
2017-Nov-08 18:58N 51°30' W 002°42'0 0.0
2017-Nov-08 18:28N 51°30' W 002°42'0 0.0
2017-Nov-08 17:58N 51°30' W 002°42'0 0.0
2017-Nov-08 17:28N 51°30' W 002°42'0 0.0
2017-Nov-08 16:58N 51°30' W 002°42'0 0.0
2017-Nov-08 16:28N 51°30' W 002°42'0 0.0
2017-Nov-08 15:58N 51°30' W 002°42'0 0.0
2017-Nov-08 15:28N 51°30' W 002°42'0 0.0
2017-Nov-08 14:58N 51°30' W 002°42'0 0.0
2017-Nov-08 14:28N 51°30' W 002°42'0 0.0
2017-Nov-08 13:58N 51°30' W 002°42'0 0.0
2017-Nov-08 13:28N 51°30' W 002°42'0 0.0
2017-Nov-08 12:58N 51°30' W 002°42'0 0.0
2017-Nov-08 12:28N 51°30' W 002°42'0 0.0
2017-Nov-08 11:58N 51°30' W 002°42'0 0.0
2017-Nov-08 11:28N 51°30' W 002°42'0 0.0
2017-Nov-08 10:58N 51°30' W 002°42'0 0.0
2017-Nov-08 10:25N 51°30' W 002°42'0 0.0
2017-Nov-08 09:58N 51°30' W 002°42'0 0.0
2017-Nov-08 09:28N 51°30' W 002°42'  
Track history (hours):
 
Tides and Currents Weather Stations Pressure Air Temp Water Temp Dewpoint Dewpoint Depression Visibility Wind Speed Wind Dir Waves Ship Positions

Clipper Tradition

Last reported at 2017-Nov-18 09:09 UTC. Time now 2017-Dec-11 04:18 UTC.
Position N 36°25' E 014°45'.
Warning: this ship's position is 22 days out of date.

Length 179 m; draft 8.9 m.

Type: Cargo ship. MMSI: 311016100.

Date/timePositionNaut miles runAvg speedWind from/ knotsBaromVisibWave heightAir tempDewpointWater temp
2017-Nov-18 09:09N 36°25' E 014°45'311.8
2017-Nov-18 08:55N 36°25' E 014°41'512.0
2017-Nov-18 08:30N 36°26' E 014°35'611.8
2017-Nov-18 08:00N 36°27' E 014°28'611.8
2017-Nov-18 07:30N 36°28' E 014°21'611.6
2017-Nov-18 07:00N 36°30' E 014°14'611.6
2017-Nov-18 06:30N 36°31' E 014°07'  
2017-Nov-14 20:28N 35°60' W 005°10'613.5
2017-Nov-14 20:01N 35°59' W 005°17'713.2
2017-Nov-14 19:31N 35°58' W 005°25'17311.0
2017-Nov-14 03:44N 36°29' W 008°56'411.0
2017-Nov-14 03:21N 36°30' W 009°01'510.9
2017-Nov-14 02:52N 36°32' W 009°08'  
2017-Nov-11 10:44N 47°25' W 008°02'210.7
2017-Nov-11 10:30N 47°27' W 008°03'9010.0
2017-Nov-11 01:29N 48°53' W 007°21'810.5
2017-Nov-11 00:42N 49°00' W 007°17'910.2
2017-Nov-10 23:50N 49°09' W 007°13'105 9.5
2017-Nov-10 12:43N 50°39' W 005°48'2 7.7
2017-Nov-10 12:27N 50°40' W 005°46'5 9.6
2017-Nov-10 11:58N 50°43' W 005°40'5 9.9
2017-Nov-10 11:27N 50°47' W 005°35'5 9.6
2017-Nov-10 10:57N 50°50' W 005°29'5 9.5
2017-Nov-10 10:28N 50°53' W 005°24'5 9.2
2017-Nov-10 09:57N 50°56' W 005°18'5 9.0
2017-Nov-10 09:26N 50°60' W 005°13'4 9.2
2017-Nov-10 09:00N 51°03' W 005°09'510.2
2017-Nov-10 08:29N 51°07' W 005°04'4 7.5
2017-Nov-10 07:58N 51°08' W 004°59'4 8.5
2017-Nov-10 07:27N 51°11' W 004°53'4 8.3
2017-Nov-10 07:00N 51°14' W 004°49'4 7.8
2017-Nov-10 06:30N 51°16' W 004°44'4 7.3
2017-Nov-10 06:00N 51°16' W 004°38'4 7.5
2017-Nov-10 05:30N 51°17' W 004°32'4 8.0
2017-Nov-10 05:01N 51°17' W 004°26'4 8.4
2017-Nov-10 04:30N 51°17' W 004°19'4 8.8
2017-Nov-10 04:00N 51°18' W 004°12'5 9.4
2017-Nov-10 03:31N 51°18' W 004°05'510.4
2017-Nov-10 03:01N 51°19' W 003°57'1311.7
2017-Nov-10 01:56N 51°21' W 003°37'1013.0
2017-Nov-10 01:12N 51°21' W 003°21'412.8
2017-Nov-10 00:54N 51°21' W 003°15'4 9.4
2017-Nov-10 00:29N 51°22' W 003°09'613.1
2017-Nov-10 00:00N 51°26' W 003°01'612.2
2017-Nov-09 23:30N 51°28' W 002°52'611.0
2017-Nov-09 23:00N 51°30' W 002°44'1 2.1
2017-Nov-09 22:30N 51°30' W 002°43'0 0.4
2017-Nov-09 22:00N 51°30' W 002°42'0 0.1
2017-Nov-09 21:28N 51°30' W 002°42'0 0.0
2017-Nov-09 20:58N 51°30' W 002°42'0 0.0
2017-Nov-09 20:28N 51°30' W 002°42'0 0.0
2017-Nov-09 19:58N 51°30' W 002°42'0 0.0
2017-Nov-09 19:28N 51°30' W 002°42'0 0.0
2017-Nov-09 18:58N 51°30' W 002°42'0 0.0
2017-Nov-09 18:28N 51°30' W 002°42'0 0.0
2017-Nov-09 17:58N 51°30' W 002°42'0 0.0
2017-Nov-09 17:28N 51°30' W 002°42'0 0.0
2017-Nov-09 16:58N 51°30' W 002°42'0 0.0
2017-Nov-09 16:28N 51°30' W 002°42'0 0.0
2017-Nov-09 15:58N 51°30' W 002°42'0 0.0
2017-Nov-09 15:28N 51°30' W 002°42'0 0.0
2017-Nov-09 14:58N 51°30' W 002°42'0 0.0
2017-Nov-09 14:28N 51°30' W 002°42'0 0.0
2017-Nov-09 13:58N 51°30' W 002°42'0 0.0
2017-Nov-09 13:28N 51°30' W 002°42'0 0.1
2017-Nov-09 12:58N 51°30' W 002°42'0 0.1
2017-Nov-09 12:28N 51°30' W 002°42'0 0.0
2017-Nov-09 11:58N 51°30' W 002°42'0 0.0
2017-Nov-09 11:28N 51°30' W 002°42'0 0.0
2017-Nov-09 10:58N 51°30' W 002°42'0 0.0
2017-Nov-09 10:28N 51°30' W 002°42'0 0.0
2017-Nov-09 09:58N 51°30' W 002°42'0 0.0
2017-Nov-09 09:28N 51°30' W 002°42'0 0.0
2017-Nov-09 08:58N 51°30' W 002°42'0 0.0
2017-Nov-09 08:28N 51°30' W 002°42'0 0.0
2017-Nov-09 07:58N 51°30' W 002°42'0 0.0
2017-Nov-09 07:28N 51°30' W 002°42'0 0.0
2017-Nov-09 06:58N 51°30' W 002°42'0 0.0
2017-Nov-09 06:28N 51°30' W 002°42'0 0.0
2017-Nov-09 05:58N 51°30' W 002°42'0 0.0
2017-Nov-09 05:28N 51°30' W 002°42'0 0.0
2017-Nov-09 04:58N 51°30' W 002°42'0 0.0
2017-Nov-09 04:28N 51°30' W 002°42'0 0.0
2017-Nov-09 03:58N 51°30' W 002°42'0 0.0
2017-Nov-09 03:28N 51°30' W 002°42'0 0.0
2017-Nov-09 02:58N 51°30' W 002°42'0 0.0
2017-Nov-09 02:28N 51°30' W 002°42'0 0.0
2017-Nov-09 01:58N 51°30' W 002°42'0 0.0
2017-Nov-09 01:28N 51°30' W 002°42'0 0.0
2017-Nov-09 00:58N 51°30' W 002°42'0 0.0
2017-Nov-09 00:28N 51°30' W 002°42'0 0.0
2017-Nov-08 23:58N 51°30' W 002°42'0 0.0
2017-Nov-08 23:28N 51°30' W 002°42'0 0.0
2017-Nov-08 22:58N 51°30' W 002°42'0 0.0
2017-Nov-08 22:28N 51°30' W 002°42'0 0.0
2017-Nov-08 21:58N 51°30' W 002°42'0 0.0
2017-Nov-08 21:28N 51°30' W 002°42'0 0.0
2017-Nov-08 20:58N 51°30' W 002°42'0 0.0
2017-Nov-08 20:28N 51°30' W 002°42'0 0.0
2017-Nov-08 19:58N 51°30' W 002°42'0 0.0
2017-Nov-08 19:28N 51°30' W 002°42'0 0.0
2017-Nov-08 18:58N 51°30' W 002°42'0 0.0
2017-Nov-08 18:28N 51°30' W 002°42'0 0.0
2017-Nov-08 17:58N 51°30' W 002°42'0 0.0
2017-Nov-08 17:28N 51°30' W 002°42'0 0.0
2017-Nov-08 16:58N 51°30' W 002°42'0 0.0
2017-Nov-08 16:28N 51°30' W 002°42'0 0.0
2017-Nov-08 15:58N 51°30' W 002°42'0 0.0
2017-Nov-08 15:28N 51°30' W 002°42'0 0.0
2017-Nov-08 14:58N 51°30' W 002°42'0 0.0
2017-Nov-08 14:28N 51°30' W 002°42'0 0.0
2017-Nov-08 13:58N 51°30' W 002°42'0 0.0
2017-Nov-08 13:28N 51°30' W 002°42'0 0.0
2017-Nov-08 12:58N 51°30' W 002°42'0 0.0
2017-Nov-08 12:28N 51°30' W 002°42'0 0.0
2017-Nov-08 11:58N 51°30' W 002°42'0 0.0
2017-Nov-08 11:28N 51°30' W 002°42'0 0.0
2017-Nov-08 10:58N 51°30' W 002°42'0 0.0
2017-Nov-08 10:25N 51°30' W 002°42'0 0.0
2017-Nov-08 09:58N 51°30' W 002°42'0 0.0
2017-Nov-08 09:28N 51°30' W 002°42'  

Dump ship's entire track history